createdAt,value
2022-12-29T00:02:17.269Z,1.17
2022-12-29T00:04:43.526Z,2.67
2022-12-29T00:07:11.097Z,1.40
2022-12-29T00:09:37.723Z,2.50
2022-12-29T00:12:05.238Z,0.93
2022-12-29T00:14:49.883Z,2.93
2022-12-29T00:17:16.036Z,1.10
2022-12-29T00:20:00.766Z,1.07
2022-12-29T00:22:45.222Z,1.07
2022-12-29T00:25:31.365Z,2.70
2022-12-29T00:28:17.599Z,1.53
2022-12-29T00:30:59.228Z,1.10
2022-12-29T00:33:46.084Z,1.20
2022-12-29T00:36:15.533Z,1.13
2022-12-29T00:39:04.166Z,1.10
2022-12-29T00:41:48.509Z,2.60
2022-12-29T00:44:15.397Z,1.10
2022-12-29T00:46:42.863Z,0.93
2022-12-29T00:49:28.495Z,1.13
2022-12-29T00:51:54.945Z,0.90
2022-12-29T00:54:21.211Z,1.00
2022-12-29T00:56:47.907Z,1.10
2022-12-29T00:59:14.878Z,0.80
2022-12-29T01:01:41.577Z,0.90
2022-12-29T01:04:08.225Z,0.70
2022-12-29T01:06:35.619Z,0.60
2022-12-29T01:09:20.331Z,0.70
2022-12-29T01:11:46.520Z,0.93
2022-12-29T01:14:12.719Z,0.80
2022-12-29T01:16:39.644Z,0.50
2022-12-29T01:19:06.380Z,0.73
2022-12-29T01:21:33.800Z,0.43
2022-12-29T01:23:59.975Z,0.30
2022-12-29T01:26:26.223Z,1.40
2022-12-29T01:28:52.449Z,0.20
2022-12-29T01:31:18.830Z,1.20
2022-12-29T01:33:45.797Z,0.30
2022-12-29T01:36:14.290Z,1.37
2022-12-29T01:38:41.112Z,0.87
2022-12-29T01:41:09.190Z,0.30
2022-12-29T01:43:43.114Z,0.40
2022-12-29T01:46:16.598Z,0.73
2022-12-29T01:48:43.560Z,0.30
2022-12-29T01:51:10.592Z,0.63
2022-12-29T01:53:37.422Z,0.43
2022-12-29T01:56:07.161Z,0.50
2022-12-29T01:58:35.993Z,2.70
2022-12-29T02:01:02.703Z,1.70
2022-12-29T02:03:30.873Z,0.77
2022-12-29T02:06:00.467Z,0.47
2022-12-29T02:08:29.138Z,0.83
2022-12-29T02:10:56.337Z,0.50
2022-12-29T02:13:24.549Z,0.70
2022-12-29T02:16:01.338Z,0.60
2022-12-29T02:18:34.621Z,2.83
2022-12-29T02:21:28.098Z,0.83
2022-12-29T02:24:17.317Z,2.27
2022-12-29T02:27:15.879Z,0.73
2022-12-29T02:30:04.779Z,0.77
2022-12-29T02:32:38.410Z,0.97
2022-12-29T02:35:10.529Z,0.83
2022-12-29T02:37:41.091Z,1.33
2022-12-29T02:40:15.893Z,3.23
2022-12-29T02:42:46.277Z,0.53
2022-12-29T02:45:16.645Z,1.00
2022-12-29T02:47:50.634Z,2.90
2022-12-29T02:50:21.530Z,2.30
2022-12-29T02:52:51.380Z,1.17
2022-12-29T02:55:17.679Z,2.40
2022-12-29T02:57:44.530Z,0.80
2022-12-29T03:00:13.738Z,1.73
2022-12-29T03:03:04.453Z,1.47
2022-12-29T03:05:42.939Z,1.40
2022-12-29T03:08:15.022Z,1.20
2022-12-29T03:10:48.439Z,1.63
2022-12-29T03:13:40.924Z,2.07
2022-12-29T03:16:13.705Z,0.93
2022-12-29T03:18:47.160Z,0.77
2022-12-29T03:21:16.768Z,1.93
2022-12-29T03:23:47.876Z,3.67
2022-12-29T03:26:15.533Z,0.83
2022-12-29T03:28:44.484Z,3.60
2022-12-29T03:31:11.388Z,2.00
2022-12-29T03:33:40.585Z,0.77
2022-12-29T03:36:11.326Z,1.80
2022-12-29T03:38:44.533Z,3.00
2022-12-29T03:41:13.560Z,1.40
2022-12-29T03:43:40.033Z,1.70
2022-12-29T03:46:06.491Z,1.70
2022-12-29T03:48:33.417Z,2.60
2022-12-29T03:51:00.149Z,0.83
2022-12-29T03:53:27.325Z,0.50
2022-12-29T03:55:53.527Z,0.57
2022-12-29T03:58:20.167Z,0.40
2022-12-29T04:00:46.606Z,1.40
2022-12-29T04:03:13.523Z,1.60
2022-12-29T04:05:40.246Z,1.07
2022-12-29T04:08:06.544Z,0.60
2022-12-29T04:10:33.528Z,0.40
2022-12-29T04:13:00.316Z,0.63
2022-12-29T04:15:26.845Z,0.70
2022-12-29T04:17:53.817Z,0.60
2022-12-29T04:20:38.136Z,0.80
2022-12-29T04:23:06.218Z,1.60
2022-12-29T04:25:33.741Z,0.53
2022-12-29T04:28:00.752Z,0.70
2022-12-29T04:30:27.191Z,0.40
2022-12-29T04:32:54.168Z,0.40
2022-12-29T04:35:20.604Z,0.60
2022-12-29T04:37:47.299Z,0.57
2022-12-29T04:40:13.687Z,0.60
2022-12-29T04:42:40.686Z,3.03
2022-12-29T04:45:08.402Z,0.67
2022-12-29T04:47:34.731Z,1.17
2022-12-29T04:50:00.945Z,3.07
2022-12-29T04:52:27.587Z,5.53
2022-12-29T04:54:54.387Z,0.90
2022-12-29T04:57:21.092Z,1.27
2022-12-29T04:59:47.919Z,1.43
2022-12-29T05:02:14.223Z,1.80
2022-12-29T05:04:40.670Z,3.07
2022-12-29T05:07:06.792Z,2.53
2022-12-29T05:09:33.670Z,2.53
2022-12-29T05:12:00.040Z,2.30
2022-12-29T05:14:26.422Z,1.00
2022-12-29T05:16:53.348Z,2.10
2022-12-29T05:19:20.012Z,1.03
2022-12-29T05:21:46.386Z,2.53
2022-12-29T05:24:12.850Z,0.80
2022-12-29T05:26:39.209Z,1.90
2022-12-29T05:29:05.549Z,4.07
2022-12-29T05:31:31.934Z,3.80
2022-12-29T05:33:58.882Z,1.87
2022-12-29T05:36:25.320Z,2.63
2022-12-29T05:38:51.572Z,1.57
2022-12-29T05:41:17.732Z,1.10
2022-12-29T05:43:44.550Z,0.80
2022-12-29T05:46:10.845Z,3.03
2022-12-29T05:48:38.288Z,1.93
2022-12-29T05:51:06.042Z,2.83
2022-12-29T05:53:32.212Z,2.40
2022-12-29T05:56:00.511Z,4.80
2022-12-29T05:58:26.719Z,4.77
2022-12-29T06:00:52.995Z,0.80
2022-12-29T06:03:19.418Z,1.30
2022-12-29T06:05:46.070Z,1.73
2022-12-29T06:08:12.990Z,2.27
2022-12-29T06:10:39.252Z,1.33
2022-12-29T06:13:06.228Z,2.53
2022-12-29T06:15:32.627Z,3.07
2022-12-29T06:17:58.828Z,1.30
2022-12-29T06:20:25.609Z,3.63
2022-12-29T06:22:52.014Z,1.50
2022-12-29T06:25:18.909Z,2.40
2022-12-29T06:27:45.224Z,4.23
2022-12-29T06:30:12.531Z,2.17
2022-12-29T06:32:38.879Z,2.83
2022-12-29T06:35:06.335Z,3.50
2022-12-29T06:37:32.521Z,2.27
2022-12-29T06:39:58.922Z,2.13
2022-12-29T06:42:25.699Z,3.37
2022-12-29T06:44:52.538Z,2.60
2022-12-29T06:47:19.297Z,2.90
2022-12-29T06:49:45.747Z,2.17
2022-12-29T06:52:13.263Z,3.77
2022-12-29T06:54:40.347Z,3.70
2022-12-29T06:57:06.524Z,2.33
2022-12-29T06:59:34.166Z,1.37
2022-12-29T07:02:02.182Z,2.27
2022-12-29T07:04:28.585Z,2.00
2022-12-29T07:06:54.822Z,8.57
2022-12-29T07:09:21.010Z,3.07
2022-12-29T07:11:47.219Z,1.20
2022-12-29T07:14:13.619Z,2.13
2022-12-29T07:16:41.122Z,6.53
2022-12-29T07:19:07.331Z,2.13
2022-12-29T07:21:33.498Z,2.83
2022-12-29T07:23:59.662Z,1.43
2022-12-29T07:26:25.878Z,4.73
2022-12-29T07:28:52.425Z,3.97
2022-12-29T07:31:19.864Z,2.20
2022-12-29T07:33:46.762Z,0.73
2022-12-29T07:36:14.051Z,2.93
2022-12-29T07:38:40.494Z,3.20
2022-12-29T07:41:06.761Z,3.37
2022-12-29T07:43:33.102Z,2.43
2022-12-29T07:45:59.395Z,3.73
2022-12-29T07:48:26.162Z,1.57
2022-12-29T07:50:53.351Z,3.17
2022-12-29T07:53:19.658Z,3.80
2022-12-29T07:55:45.886Z,3.33
2022-12-29T07:58:12.149Z,3.20
2022-12-29T08:00:38.460Z,3.87
2022-12-29T08:03:04.971Z,3.27
2022-12-29T08:05:31.429Z,2.07
2022-12-29T08:07:58.201Z,6.30
2022-12-29T08:10:24.521Z,2.50
2022-12-29T08:12:50.780Z,3.30
2022-12-29T08:15:17.152Z,7.43
2022-12-29T08:17:43.247Z,3.07
2022-12-29T08:20:10.176Z,2.93
2022-12-29T08:22:36.385Z,3.87
2022-12-29T08:25:04.035Z,5.43
2022-12-29T08:27:30.251Z,6.87
2022-12-29T08:29:56.400Z,4.30
2022-12-29T08:32:22.726Z,7.93
2022-12-29T08:34:49.414Z,4.60
2022-12-29T08:37:15.633Z,5.83
2022-12-29T08:39:41.853Z,7.73
2022-12-29T08:42:09.485Z,5.27
2022-12-29T08:44:35.935Z,4.53
2022-12-29T08:47:02.236Z,5.63
2022-12-29T08:49:28.959Z,3.97
2022-12-29T08:51:55.326Z,4.10
2022-12-29T08:54:21.630Z,5.90
2022-12-29T08:56:48.012Z,4.43
2022-12-29T08:59:15.652Z,6.60
2022-12-29T09:01:42.363Z,8.77
2022-12-29T09:04:17.593Z,4.93
2022-12-29T09:06:45.260Z,3.80
2022-12-29T09:09:11.737Z,4.17
2022-12-29T09:11:38.060Z,9.63
2022-12-29T09:14:04.885Z,9.37
2022-12-29T09:16:32.112Z,8.63
2022-12-29T09:18:58.862Z,12.33
2022-12-29T09:21:25.350Z,4.93
2022-12-29T09:23:51.538Z,3.93
2022-12-29T09:26:17.665Z,6.70
2022-12-29T09:28:44.580Z,9.73
2022-12-29T09:31:11.184Z,4.90
2022-12-29T09:33:38.317Z,3.97
2022-12-29T09:36:04.726Z,13.47
2022-12-29T09:38:31.679Z,7.17
2022-12-29T09:41:02.255Z,3.27
2022-12-29T09:43:51.768Z,5.97
2022-12-29T09:46:24.547Z,8.90
2022-12-29T09:48:56.314Z,7.10
2022-12-29T09:51:28.514Z,8.10
2022-12-29T09:53:57.900Z,2.30
2022-12-29T09:56:25.557Z,5.70
2022-12-29T09:58:53.195Z,8.13
2022-12-29T10:01:27.477Z,5.27
2022-12-29T10:03:56.900Z,12.17
2022-12-29T10:06:25.053Z,8.57
2022-12-29T10:08:56.031Z,3.23
2022-12-29T10:11:32.457Z,8.07
2022-12-29T10:14:15.673Z,6.97
2022-12-29T10:16:48.892Z,9.07
2022-12-29T10:19:32.884Z,5.50
2022-12-29T10:22:09.170Z,5.10
2022-12-29T10:24:39.123Z,5.33
2022-12-29T10:27:10.705Z,5.70
2022-12-29T10:29:38.662Z,11.60
2022-12-29T10:32:07.301Z,3.17
2022-12-29T10:34:37.233Z,5.47
2022-12-29T10:37:10.126Z,8.63
2022-12-29T10:39:39.264Z,6.27
2022-12-29T10:42:11.154Z,5.77
2022-12-29T10:44:37.625Z,8.30
2022-12-29T10:47:05.994Z,10.47
2022-12-29T10:49:32.983Z,3.73
2022-12-29T10:52:03.356Z,7.33
2022-12-29T10:54:33.334Z,4.13
2022-12-29T10:57:02.421Z,7.13
2022-12-29T10:59:31.356Z,5.47
2022-12-29T11:02:01.538Z,3.17
2022-12-29T11:04:36.634Z,2.73
2022-12-29T11:07:04.020Z,10.77
2022-12-29T11:09:47.441Z,8.17
2022-12-29T11:12:22.370Z,3.60
2022-12-29T11:15:02.033Z,5.60
2022-12-29T11:17:28.314Z,10.27
2022-12-29T11:19:54.596Z,5.17
2022-12-29T11:22:24.111Z,6.57
2022-12-29T11:24:52.774Z,5.83
2022-12-29T11:27:22.914Z,8.70
2022-12-29T11:29:50.237Z,7.53
2022-12-29T11:32:26.129Z,6.60
2022-12-29T11:34:54.596Z,8.23
2022-12-29T11:37:27.259Z,7.47
2022-12-29T11:39:56.986Z,6.70
2022-12-29T11:42:24.632Z,4.70
2022-12-29T11:44:52.488Z,7.93
2022-12-29T11:47:28.187Z,9.37
2022-12-29T11:49:56.456Z,14.77
2022-12-29T11:52:24.859Z,8.73
2022-12-29T11:54:52.653Z,10.17
2022-12-29T11:57:19.601Z,13.33
2022-12-29T11:59:50.109Z,11.53
2022-12-29T12:02:25.903Z,13.10
2022-12-29T12:04:57.161Z,8.20
2022-12-29T12:07:29.240Z,11.17
2022-12-29T12:10:06.700Z,15.60
2022-12-29T12:12:39.132Z,6.63
2022-12-29T12:15:06.639Z,6.30
2022-12-29T12:17:38.654Z,6.17
2022-12-29T12:20:11.110Z,13.80
2022-12-29T12:22:39.092Z,6.50
2022-12-29T12:25:13.397Z,8.57
2022-12-29T12:27:43.579Z,8.33
2022-12-29T12:30:13.714Z,11.00
2022-12-29T12:32:44.920Z,11.60
2022-12-29T12:35:18.208Z,11.87
2022-12-29T12:38:10.022Z,6.43
2022-12-29T12:40:49.098Z,6.33
2022-12-29T12:43:41.681Z,7.70
2022-12-29T12:46:20.420Z,7.13
2022-12-29T12:49:00.401Z,6.90
2022-12-29T12:51:33.160Z,4.97
2022-12-29T12:54:13.485Z,6.47
2022-12-29T12:56:51.315Z,12.37
2022-12-29T12:59:30.861Z,7.50
2022-12-29T13:02:02.106Z,9.03
2022-12-29T13:04:47.217Z,10.00
2022-12-29T13:07:21.662Z,2.57
2022-12-29T13:10:06.425Z,10.00
2022-12-29T13:12:39.699Z,7.50
2022-12-29T13:15:15.106Z,6.03
2022-12-29T13:17:45.486Z,5.30
2022-12-29T13:20:21.743Z,4.07
2022-12-29T13:22:51.293Z,8.33
2022-12-29T13:25:28.278Z,6.40
2022-12-29T13:28:01.198Z,8.40
2022-12-29T13:30:31.022Z,3.93
2022-12-29T13:33:01.190Z,7.50
2022-12-29T13:35:37.827Z,6.33
2022-12-29T13:38:08.406Z,25.37
2022-12-29T13:40:44.342Z,7.87
2022-12-29T13:43:12.109Z,11.37
2022-12-29T13:45:39.393Z,11.70
2022-12-29T13:48:08.256Z,6.97
2022-12-29T13:50:36.735Z,13.10
2022-12-29T13:53:07.142Z,4.57
2022-12-29T13:55:36.467Z,9.80
2022-12-29T13:58:08.264Z,4.93
2022-12-29T14:00:43.275Z,7.00
2022-12-29T14:03:30.303Z,3.77
2022-12-29T14:06:15.078Z,7.70
2022-12-29T14:08:41.588Z,2.90
2022-12-29T14:11:10.189Z,3.53
2022-12-29T14:13:38.586Z,8.93
2022-12-29T14:16:06.182Z,8.87
2022-12-29T14:18:33.456Z,3.37
2022-12-29T14:21:11.380Z,7.37
2022-12-29T14:23:40.325Z,2.83
2022-12-29T14:26:15.238Z,5.83
2022-12-29T14:28:42.551Z,4.90
2022-12-29T14:31:41.081Z,7.17
2022-12-29T14:34:30.688Z,3.93
2022-12-29T14:36:58.335Z,3.17
2022-12-29T14:39:35.160Z,5.20
2022-12-29T14:42:02.425Z,3.00
2022-12-29T14:44:28.622Z,6.73
2022-12-29T14:47:00.864Z,5.10
2022-12-29T14:49:29.012Z,4.43
2022-12-29T14:52:05.325Z,5.50
2022-12-29T14:54:51.828Z,2.70
2022-12-29T14:57:29.349Z,7.63
2022-12-29T15:00:00.046Z,4.73
2022-12-29T15:02:33.900Z,6.80
2022-12-29T15:05:00.825Z,8.87
2022-12-29T15:07:27.986Z,11.10
2022-12-29T15:09:57.527Z,5.77
2022-12-29T15:12:31.835Z,6.93
2022-12-29T15:14:59.443Z,8.17
2022-12-29T15:17:28.124Z,9.17
2022-12-29T15:19:54.895Z,4.03
2022-12-29T15:22:24.498Z,7.43
2022-12-29T15:24:51.919Z,2.50
2022-12-29T15:27:20.919Z,3.90
2022-12-29T15:29:47.411Z,6.43
2022-12-29T15:32:19.816Z,4.67
2022-12-29T15:34:49.380Z,8.63
2022-12-29T15:37:18.959Z,5.13
2022-12-29T15:39:45.720Z,12.10
2022-12-29T15:42:22.404Z,2.77
2022-12-29T15:44:54.199Z,7.83
2022-12-29T15:47:26.101Z,8.13
2022-12-29T15:49:56.678Z,7.10
2022-12-29T15:52:23.822Z,5.67
2022-12-29T15:54:52.565Z,4.70
2022-12-29T15:57:23.716Z,5.47
2022-12-29T15:59:50.525Z,9.27
2022-12-29T16:02:17.250Z,7.73
2022-12-29T16:05:09.067Z,7.40
2022-12-29T16:07:39.216Z,7.73
2022-12-29T16:10:25.796Z,9.90
2022-12-29T16:12:51.992Z,4.93
2022-12-29T16:15:18.550Z,8.20
2022-12-29T16:17:47.668Z,7.03
2022-12-29T16:20:18.193Z,4.37
2022-12-29T16:22:48.648Z,12.30
2022-12-29T16:25:19.018Z,8.17
2022-12-29T16:27:45.345Z,7.60
2022-12-29T16:30:21.366Z,6.17
2022-12-29T16:32:48.921Z,9.07
2022-12-29T16:35:18.983Z,4.17
2022-12-29T16:37:45.673Z,10.13
2022-12-29T16:40:30.950Z,9.60
2022-12-29T16:42:59.339Z,8.83
2022-12-29T16:46:05.587Z,9.53
2022-12-29T16:48:33.926Z,8.10
2022-12-29T16:51:05.209Z,7.10
2022-12-29T16:53:35.461Z,12.03
2022-12-29T16:56:06.010Z,9.50
2022-12-29T16:58:33.667Z,8.83
2022-12-29T17:01:01.236Z,9.63
2022-12-29T17:03:32.203Z,7.73
2022-12-29T17:05:58.416Z,12.57
2022-12-29T17:08:24.668Z,5.83
2022-12-29T17:11:09.710Z,8.10
2022-12-29T17:13:36.838Z,10.10
2022-12-29T17:16:03.144Z,8.70
2022-12-29T17:18:29.393Z,10.67
2022-12-29T17:20:55.632Z,11.83
2022-12-29T17:23:26.438Z,6.83
2022-12-29T17:25:53.638Z,13.30
2022-12-29T17:28:21.082Z,5.00
2022-12-29T17:30:48.318Z,11.60
2022-12-29T17:33:16.224Z,11.87
2022-12-29T17:35:42.456Z,9.80
2022-12-29T17:38:17.386Z,16.63
2022-12-29T17:40:43.809Z,10.60
2022-12-29T17:43:12.983Z,8.43
2022-12-29T17:45:39.835Z,10.20
2022-12-29T17:48:11.426Z,10.30
2022-12-29T17:50:37.554Z,14.27
2022-12-29T17:53:05.899Z,9.33
2022-12-29T17:55:37.670Z,10.77
2022-12-29T17:58:15.392Z,13.33
2022-12-29T18:00:41.662Z,11.40
2022-12-29T18:03:13.901Z,17.90
2022-12-29T18:05:40.066Z,8.13
2022-12-29T18:08:09.767Z,15.20
2022-12-29T18:10:36.020Z,21.70
2022-12-29T18:13:02.571Z,17.03
2022-12-29T18:15:30.590Z,9.83
2022-12-29T18:17:59.485Z,11.80
2022-12-29T18:20:27.154Z,13.90
2022-12-29T18:22:53.317Z,18.10
2022-12-29T18:25:25.476Z,13.17
2022-12-29T18:27:51.828Z,17.30
2022-12-29T18:30:18.392Z,14.77
2022-12-29T18:32:44.909Z,16.37
2022-12-29T18:35:16.894Z,13.73
2022-12-29T18:37:43.683Z,12.03
2022-12-29T18:40:11.918Z,12.90
2022-12-29T18:42:38.054Z,8.87
2022-12-29T18:45:13.427Z,13.93
2022-12-29T18:47:39.647Z,15.50
2022-12-29T18:50:06.542Z,17.53
2022-12-29T18:52:32.736Z,12.83
2022-12-29T18:54:59.620Z,10.57
2022-12-29T18:57:29.721Z,11.43
2022-12-29T18:59:56.081Z,10.20
2022-12-29T19:02:22.572Z,12.50
2022-12-29T19:04:52.900Z,9.00
2022-12-29T19:07:19.562Z,10.10
2022-12-29T19:09:45.765Z,12.43
2022-12-29T19:12:14.603Z,10.53
2022-12-29T19:14:40.977Z,15.87
2022-12-29T19:17:09.162Z,14.90
2022-12-29T19:19:35.370Z,12.40
2022-12-29T19:22:01.541Z,7.87
2022-12-29T19:24:27.708Z,11.57
2022-12-29T19:26:53.919Z,10.03
2022-12-29T19:29:20.902Z,18.77
2022-12-29T19:31:47.404Z,16.77
2022-12-29T19:34:14.405Z,12.27
2022-12-29T19:36:40.704Z,13.70
2022-12-29T19:39:06.931Z,10.07
2022-12-29T19:41:33.222Z,12.77
2022-12-29T19:43:59.472Z,7.23
2022-12-29T19:46:26.340Z,7.90
2022-12-29T19:48:54.389Z,11.10
2022-12-29T19:51:20.814Z,13.90
2022-12-29T19:53:47.339Z,6.17
2022-12-29T19:56:14.395Z,7.10
2022-12-29T19:58:46.579Z,9.47
2022-12-29T20:01:16.125Z,8.77
2022-12-29T20:03:44.384Z,14.53
2022-12-29T20:06:11.214Z,9.73
2022-12-29T20:08:38.523Z,11.70
2022-12-29T20:11:06.875Z,7.27
2022-12-29T20:13:33.647Z,11.50
2022-12-29T20:16:00.291Z,12.50
2022-12-29T20:18:29.307Z,11.17
2022-12-29T20:21:02.102Z,16.00
2022-12-29T20:23:28.633Z,16.47
2022-12-29T20:25:55.951Z,10.23
2022-12-29T20:28:22.712Z,9.83
2022-12-29T20:30:57.085Z,13.20
2022-12-29T20:33:23.496Z,7.83
2022-12-29T20:35:50.143Z,15.87
2022-12-29T20:38:17.235Z,10.77
2022-12-29T20:40:46.866Z,9.90
2022-12-29T20:43:15.969Z,13.43
2022-12-29T20:45:42.489Z,16.87
2022-12-29T20:48:08.995Z,12.87
2022-12-29T20:50:35.685Z,12.20
2022-12-29T20:53:02.491Z,8.70
2022-12-29T20:55:29.302Z,20.13
2022-12-29T20:58:23.170Z,11.33
2022-12-29T21:00:41.926Z,13.50
2022-12-29T21:03:08.605Z,12.47
2022-12-29T21:05:37.251Z,13.40
2022-12-29T21:08:04.550Z,18.73
2022-12-29T21:10:31.439Z,13.13
2022-12-29T21:12:57.612Z,17.20
2022-12-29T21:15:23.966Z,17.10
2022-12-29T21:17:50.383Z,16.30
2022-12-29T21:20:28.950Z,9.03
2022-12-29T21:22:55.667Z,6.87
2022-12-29T21:25:22.126Z,13.00
2022-12-29T21:27:49.587Z,7.47
2022-12-29T21:30:15.889Z,9.93
2022-12-29T21:32:42.174Z,14.53
2022-12-29T21:35:09.855Z,12.70
2022-12-29T21:37:36.510Z,9.57
2022-12-29T21:40:03.960Z,7.97
2022-12-29T21:42:30.362Z,14.80
2022-12-29T21:45:20.517Z,12.40
2022-12-29T21:48:06.141Z,14.20
2022-12-29T21:50:32.282Z,9.37
2022-12-29T21:52:58.504Z,9.27
2022-12-29T21:55:24.667Z,13.43
2022-12-29T21:58:09.330Z,8.87
2022-12-29T22:00:54.340Z,11.30
2022-12-29T22:03:38.773Z,14.33
2022-12-29T22:06:28.140Z,12.03
2022-12-29T22:09:12.789Z,10.90
2022-12-29T22:11:57.620Z,10.77
2022-12-29T22:14:23.925Z,13.30
2022-12-29T22:16:50.902Z,7.07
2022-12-29T22:19:17.064Z,16.83
2022-12-29T22:21:43.197Z,13.53
2022-12-29T22:24:09.499Z,14.07
2022-12-29T22:26:35.812Z,10.67
2022-12-29T22:29:01.989Z,9.83
2022-12-29T22:31:29.693Z,9.73
2022-12-29T22:33:57.898Z,15.03
2022-12-29T22:36:25.017Z,12.93
2022-12-29T22:38:51.492Z,15.10
2022-12-29T22:41:17.814Z,14.03
2022-12-29T22:43:44.120Z,11.33
2022-12-29T22:46:10.506Z,13.10
2022-12-29T22:48:37.028Z,21.30
2022-12-29T22:51:04.299Z,14.50
2022-12-29T22:53:30.982Z,13.10
2022-12-29T22:56:04.907Z,10.60
2022-12-29T22:58:31.314Z,12.03
2022-12-29T23:00:57.542Z,18.70
2022-12-29T23:03:23.966Z,20.43
2022-12-29T23:05:55.960Z,12.07
2022-12-29T23:08:22.899Z,8.97
2022-12-29T23:10:49.122Z,17.67
2022-12-29T23:13:15.383Z,10.77
2022-12-29T23:15:41.666Z,15.27
2022-12-29T23:18:07.960Z,12.47
2022-12-29T23:20:34.220Z,16.20
2022-12-29T23:23:00.712Z,16.47
2022-12-29T23:25:27.616Z,12.77
2022-12-29T23:27:53.846Z,9.77
2022-12-29T23:30:20.070Z,16.67
2022-12-29T23:32:46.443Z,13.83
2022-12-29T23:35:12.818Z,12.43
2022-12-29T23:37:39.072Z,15.40
2022-12-29T23:40:06.728Z,13.23
2022-12-29T23:42:33.629Z,9.37
2022-12-29T23:44:59.799Z,15.87
2022-12-29T23:47:26.006Z,16.20
2022-12-29T23:49:52.218Z,11.90
2022-12-29T23:52:18.448Z,15.33
2022-12-29T23:54:44.874Z,14.97
2022-12-29T23:57:14.128Z,18.33
2022-12-29T23:59:41.166Z,18.03
